sensor_id;sensor_type;location;lat;lon;timestamp;pressure;altitude;pressure_sealevel;temperature;humidity
11678;BME280;5895;41.950;24.372;2023-04-03T00:02:14;86197.34;;;3.71;66.21
11678;BME280;5895;41.950;24.372;2023-04-03T00:04:41;86194.59;;;3.66;66.63
11678;BME280;5895;41.950;24.372;2023-04-03T00:07:08;86192.84;;;3.60;66.47
11678;BME280;5895;41.950;24.372;2023-04-03T00:09:37;86197.19;;;3.53;66.32
11678;BME280;5895;41.950;24.372;2023-04-03T00:12:04;86197.44;;;3.45;66.44
11678;BME280;5895;41.950;24.372;2023-04-03T00:14:32;86201.78;;;3.44;66.76
11678;BME280;5895;41.950;24.372;2023-04-03T00:16:59;86187.16;;;3.45;66.82
11678;BME280;5895;41.950;24.372;2023-04-03T00:19:26;86199.00;;;3.46;66.84
11678;BME280;5895;41.950;24.372;2023-04-03T00:21:53;86195.84;;;3.44;66.82
11678;BME280;5895;41.950;24.372;2023-04-03T00:24:20;86186.38;;;3.44;66.81
11678;BME280;5895;41.950;24.372;2023-04-03T00:26:49;86188.94;;;3.44;66.98
11678;BME280;5895;41.950;24.372;2023-04-03T00:29:16;86192.28;;;3.45;66.94
11678;BME280;5895;41.950;24.372;2023-04-03T00:31:43;86189.72;;;3.45;67.05
11678;BME280;5895;41.950;24.372;2023-04-03T00:34:10;86185.59;;;3.44;67.20
11678;BME280;5895;41.950;24.372;2023-04-03T00:36:38;86194.69;;;3.40;67.08
11678;BME280;5895;41.950;24.372;2023-04-03T00:39:05;86190.94;;;3.42;67.50
11678;BME280;5895;41.950;24.372;2023-04-03T00:41:32;86182.44;;;3.42;67.54
11678;BME280;5895;41.950;24.372;2023-04-03T00:44:00;86178.91;;;3.43;67.68
11678;BME280;5895;41.950;24.372;2023-04-03T00:46:28;86183.25;;;3.42;67.20
11678;BME280;5895;41.950;24.372;2023-04-03T00:48:56;86186.00;;;3.41;67.77
11678;BME280;5895;41.950;24.372;2023-04-03T00:51:24;86182.44;;;3.42;67.57
11678;BME280;5895;41.950;24.372;2023-04-03T00:53:54;86185.59;;;3.44;68.35
11678;BME280;5895;41.950;24.372;2023-04-03T00:56:25;86186.00;;;3.41;68.26
11678;BME280;5895;41.950;24.372;2023-04-03T00:58:56;86180.50;;;3.37;67.53
11678;BME280;5895;41.950;24.372;2023-04-03T01:01:28;86180.69;;;3.36;68.01
11678;BME280;5895;41.950;24.372;2023-04-03T01:03:56;86177.53;;;3.34;68.10
11678;BME280;5895;41.950;24.372;2023-04-03T01:06:26;86180.09;;;3.34;68.90
11678;BME280;5895;41.950;24.372;2023-04-03T01:08:56;86178.53;;;3.33;68.28
11678;BME280;5895;41.950;24.372;2023-04-03T01:11:24;86177.94;;;3.31;68.40
11678;BME280;5895;41.950;24.372;2023-04-03T01:13:51;86178.91;;;3.30;68.01
11678;BME280;5895;41.950;24.372;2023-04-03T01:16:19;86173.44;;;3.26;68.35
11678;BME280;5895;41.950;24.372;2023-04-03T01:18:47;86175.22;;;3.26;68.51
11678;BME280;5895;41.950;24.372;2023-04-03T01:21:45;86162.78;;;3.23;72.30
11678;BME280;5895;41.950;24.372;2023-04-03T01:24:26;86163.97;;;3.20;69.04
11678;BME280;5895;41.950;24.372;2023-04-03T01:26:56;86166.72;;;3.18;68.42
11678;BME280;5895;41.950;24.372;2023-04-03T01:29:23;86173.63;;;3.18;68.52
11678;BME280;5895;41.950;24.372;2023-04-03T01:31:53;86166.16;;;3.16;68.96
11678;BME280;5895;41.950;24.372;2023-04-03T01:34:21;86163.97;;;3.13;68.26
11678;BME280;5895;41.950;24.372;2023-04-03T01:36:48;86158.47;;;3.16;68.79
11678;BME280;5895;41.950;24.372;2023-04-03T01:39:16;86171.28;;;3.16;68.56
11678;BME280;5895;41.950;24.372;2023-04-03T01:41:43;86169.09;;;3.13;68.55
11678;BME280;5895;41.950;24.372;2023-04-03T01:44:11;86172.28;;;3.15;68.70
11678;BME280;5895;41.950;24.372;2023-04-03T01:46:38;86163.78;;;3.15;69.31
11678;BME280;5895;41.950;24.372;2023-04-03T01:49:09;86165.16;;;3.17;68.83
11678;BME280;5895;41.950;24.372;2023-04-03T01:51:36;86171.84;;;3.18;68.76
11678;BME280;5895;41.950;24.372;2023-04-03T01:54:03;86162.03;;;3.15;68.91
11678;BME280;5895;41.950;24.372;2023-04-03T01:56:30;86165.16;;;3.17;69.14
11678;BME280;5895;41.950;24.372;2023-04-03T01:58:58;86156.47;;;3.18;69.57
11678;BME280;5895;41.950;24.372;2023-04-03T02:01:25;86156.47;;;3.18;69.07
11678;BME280;5895;41.950;24.372;2023-04-03T02:03:53;86160.03;;;3.17;69.26
11678;BME280;5895;41.950;24.372;2023-04-03T02:06:21;86158.06;;;3.13;68.52
11678;BME280;5895;41.950;24.372;2023-04-03T02:08:48;86156.50;;;3.05;68.80
11678;BME280;5895;41.950;24.372;2023-04-03T02:11:16;86158.50;;;3.03;68.98
11678;BME280;5895;41.950;24.372;2023-04-03T02:13:43;86163.63;;;3.03;68.74
11678;BME280;5895;41.950;24.372;2023-04-03T02:16:10;86166.38;;;3.02;68.78
11678;BME280;5895;41.950;24.372;2023-04-03T02:18:38;86167.16;;;3.02;69.20
11678;BME280;5895;41.950;24.372;2023-04-03T02:21:05;86169.13;;;3.00;69.30
11678;BME280;5895;41.950;24.372;2023-04-03T02:23:34;86164.41;;;2.97;70.02
11678;BME280;5895;41.950;24.372;2023-04-03T02:26:04;86169.13;;;3.00;69.46
11678;BME280;5895;41.950;24.372;2023-04-03T02:28:31;86157.31;;;2.99;69.56
11678;BME280;5895;41.950;24.372;2023-04-03T02:30:59;86156.13;;;2.95;69.74
11678;BME280;5895;41.950;24.372;2023-04-03T02:33:26;86157.34;;;2.92;69.54
11678;BME280;5895;41.950;24.372;2023-04-03T02:35:53;86156.94;;;2.89;69.36
11678;BME280;5895;41.950;24.372;2023-04-03T02:38:20;86154.38;;;2.89;69.69
11678;BME280;5895;41.950;24.372;2023-04-03T02:40:49;86152.59;;;2.89;69.99
11678;BME280;5895;41.950;24.372;2023-04-03T02:43:17;86147.69;;;2.88;69.72
11678;BME280;5895;41.950;24.372;2023-04-03T02:45:45;86147.06;;;2.86;70.30
11678;BME280;5895;41.950;24.372;2023-04-03T02:48:12;86146.50;;;2.84;69.59
11678;BME280;5895;41.950;24.372;2023-04-03T02:50:40;86142.38;;;2.83;69.77
11678;BME280;5895;41.950;24.372;2023-04-03T02:53:07;86138.41;;;2.80;70.05
11678;BME280;5895;41.950;24.372;2023-04-03T02:55:34;86136.06;;;2.79;69.97
11678;BME280;5895;41.950;24.372;2023-04-03T02:58:03;86122.28;;;2.73;70.96
11678;BME280;5895;41.950;24.372;2023-04-03T03:00:30;86123.47;;;2.71;70.07
11678;BME280;5895;41.950;24.372;2023-04-03T03:02:57;86121.31;;;2.68;70.93
11678;BME280;5895;41.950;24.372;2023-04-03T03:05:24;86120.72;;;2.65;70.41
11678;BME280;5895;41.950;24.372;2023-04-03T03:07:52;86117.56;;;2.63;70.03
11678;BME280;5895;41.950;24.372;2023-04-03T03:10:19;86109.72;;;2.58;70.33
11678;BME280;5895;41.950;24.372;2023-04-03T03:12:46;86111.47;;;2.58;70.51
11678;BME280;5895;41.950;24.372;2023-04-03T03:15:15;86107.13;;;2.52;71.16
11678;BME280;5895;41.950;24.372;2023-04-03T03:17:43;86104.19;;;2.55;70.99
11678;BME280;5895;41.950;24.372;2023-04-03T03:20:11;86101.41;;;2.56;71.26
11678;BME280;5895;41.950;24.372;2023-04-03T03:22:39;86103.00;;;2.57;71.16
11678;BME280;5895;41.950;24.372;2023-04-03T03:25:07;86108.13;;;2.57;71.41
11678;BME280;5895;41.950;24.372;2023-04-03T03:27:34;86107.16;;;2.58;71.37
11678;BME280;5895;41.950;24.372;2023-04-03T03:30:01;86104.59;;;2.58;70.79
11678;BME280;5895;41.950;24.372;2023-04-03T03:32:30;86114.84;;;2.58;71.47
11678;BME280;5895;41.950;24.372;2023-04-03T03:34:57;86111.28;;;2.59;70.95
11678;BME280;5895;41.950;24.372;2023-04-03T03:37:24;86108.91;;;2.58;70.93
11678;BME280;5895;41.950;24.372;2023-04-03T03:39:52;86109.09;;;2.56;71.24
11678;BME280;5895;41.950;24.372;2023-04-03T03:42:19;86111.66;;;2.56;71.10
11678;BME280;5895;41.950;24.372;2023-04-03T03:44:46;86118.34;;;2.57;71.03
11678;BME280;5895;41.950;24.372;2023-04-03T03:47:13;86120.75;;;2.59;71.18
11678;BME280;5895;41.950;24.372;2023-04-03T03:49:42;86128.59;;;2.57;70.69
11678;BME280;5895;41.950;24.372;2023-04-03T03:52:09;86134.50;;;2.51;70.53
11678;BME280;5895;41.950;24.372;2023-04-03T03:54:37;86135.31;;;2.45;70.28
11678;BME280;5895;41.950;24.372;2023-04-03T03:57:04;86133.94;;;2.49;70.63
11678;BME280;5895;41.950;24.372;2023-04-03T03:59:31;86133.72;;;2.51;70.79
11678;BME280;5895;41.950;24.372;2023-04-03T04:01:59;86130.19;;;2.52;70.66
11678;BME280;5895;41.950;24.372;2023-04-03T04:04:26;86137.06;;;2.51;70.69
11678;BME280;5895;41.950;24.372;2023-04-03T04:06:55;86138.06;;;2.50;71.13
11678;BME280;5895;41.950;24.372;2023-04-03T04:09:22;86142.00;;;2.46;71.35
11678;BME280;5895;41.950;24.372;2023-04-03T04:11:49;86136.88;;;2.46;71.13
11678;BME280;5895;41.950;24.372;2023-04-03T04:14:16;86143.59;;;2.47;71.29
11678;BME280;5895;41.950;24.372;2023-04-03T04:16:43;86147.13;;;2.46;71.17
11678;BME280;5895;41.950;24.372;2023-04-03T04:19:10;86146.53;;;2.44;70.81
11678;BME280;5895;41.950;24.372;2023-04-03T04:21:38;86151.88;;;2.43;70.74
11678;BME280;5895;41.950;24.372;2023-04-03T04:24:09;86154.59;;;2.41;70.78
11678;BME280;5895;41.950;24.372;2023-04-03T04:26:36;86148.53;;;2.42;70.83
11678;BME280;5895;41.950;24.372;2023-04-03T04:29:03;86139.06;;;2.43;71.15
11678;BME280;5895;41.950;24.372;2023-04-03T04:31:30;86132.16;;;2.43;71.72
11678;BME280;5895;41.950;24.372;2023-04-03T04:33:57;86136.28;;;2.44;70.94
11678;BME280;5895;41.950;24.372;2023-04-03T04:36:24;86154.22;;;2.44;70.45
11678;BME280;5895;41.950;24.372;2023-04-03T04:38:51;86158.34;;;2.38;70.84
11678;BME280;5895;41.950;24.372;2023-04-03T04:41:21;86158.56;;;2.44;70.87
11678;BME280;5895;41.950;24.372;2023-04-03T04:43:48;86149.69;;;2.46;70.66
11678;BME280;5895;41.950;24.372;2023-04-03T04:46:16;86155.78;;;2.45;70.66
11678;BME280;5895;41.950;24.372;2023-04-03T04:48:44;86154.78;;;2.46;70.97
11678;BME280;5895;41.950;24.372;2023-04-03T04:51:11;86136.50;;;2.49;70.62
11678;BME280;5895;41.950;24.372;2023-04-03T04:53:39;86136.91;;;2.53;70.54
11678;BME280;5895;41.950;24.372;2023-04-03T04:56:06;86139.25;;;2.54;71.23
11678;BME280;5895;41.950;24.372;2023-04-03T04:58:35;86121.91;;;2.56;71.58
11678;BME280;5895;41.950;24.372;2023-04-03T05:01:03;86136.09;;;2.59;70.81
11678;BME280;5895;41.950;24.372;2023-04-03T05:03:31;86141.59;;;2.62;70.96
11678;BME280;5895;41.950;24.372;2023-04-03T05:05:58;86140.22;;;2.67;71.13
11678;BME280;5895;41.950;24.372;2023-04-03T05:08:26;86154.00;;;2.65;70.59
11678;BME280;5895;41.950;24.372;2023-04-03T05:10:53;86158.16;;;2.67;70.63
11678;BME280;5895;41.950;24.372;2023-04-03T05:13:21;86149.09;;;2.71;70.78
11678;BME280;5895;41.950;24.372;2023-04-03T05:15:49;86142.56;;;2.75;70.26
11678;BME280;5895;41.950;24.372;2023-04-03T05:18:16;86150.84;;;2.77;70.73
11678;BME280;5895;41.950;24.372;2023-04-03T05:20:43;86155.38;;;2.81;71.30
11678;BME280;5895;41.950;24.372;2023-04-03T05:23:11;86140.00;;;2.88;70.74
11678;BME280;5895;41.950;24.372;2023-04-03T05:25:38;86143.75;;;2.92;70.67
11678;BME280;5895;41.950;24.372;2023-04-03T05:28:06;86160.47;;;2.95;70.17
11678;BME280;5895;41.950;24.372;2023-04-03T05:30:33;86155.34;;;3.01;70.93
11678;BME280;5895;41.950;24.372;2023-04-03T05:33:02;86156.31;;;3.07;71.37
11678;BME280;5895;41.950;24.372;2023-04-03T05:35:29;86155.31;;;3.14;70.31
11678;BME280;5895;41.950;24.372;2023-04-03T05:37:56;86153.13;;;3.18;70.66
11678;BME280;5895;41.950;24.372;2023-04-03T05:40:23;86158.06;;;3.26;70.45
11678;BME280;5895;41.950;24.372;2023-04-03T05:42:51;86160.59;;;3.33;70.52
11678;BME280;5895;41.950;24.372;2023-04-03T05:45:19;86153.66;;;3.40;70.51
11678;BME280;5895;41.950;24.372;2023-04-03T05:47:46;86156.00;;;3.48;70.78
11678;BME280;5895;41.950;24.372;2023-04-03T05:50:14;86153.59;;;3.53;71.07
11678;BME280;5895;41.950;24.372;2023-04-03T05:52:44;86157.13;;;3.59;70.70
11678;BME280;5895;41.950;24.372;2023-04-03T05:55:12;86146.06;;;3.65;70.79
11678;BME280;5895;41.950;24.372;2023-04-03T05:57:39;86146.81;;;3.72;71.27
11678;BME280;5895;41.950;24.372;2023-04-03T06:00:08;86150.19;;;3.72;71.60
11678;BME280;5895;41.950;24.372;2023-04-03T06:02:40;86155.88;;;3.75;70.94
11678;BME280;5895;41.950;24.372;2023-04-03T06:05:07;86150.94;;;3.80;71.28
11678;BME280;5895;41.950;24.372;2023-04-03T06:07:38;86150.69;;;3.88;69.87
11678;BME280;5895;41.950;24.372;2023-04-03T06:10:07;86158.16;;;3.96;70.90
11678;BME280;5895;41.950;24.372;2023-04-03T06:12:34;86157.31;;;4.02;71.28
11678;BME280;5895;41.950;24.372;2023-04-03T06:15:01;86154.94;;;4.07;70.73
11678;BME280;5895;41.950;24.372;2023-04-03T06:17:29;86149.97;;;4.12;71.16
11678;BME280;5895;41.950;24.372;2023-04-03T06:19:56;86135.53;;;4.18;71.00
11678;BME280;5895;41.950;24.372;2023-04-03T06:22:24;86132.50;;;4.28;70.69
11678;BME280;5895;41.950;24.372;2023-04-03T06:24:54;86134.22;;;4.34;71.57
11678;BME280;5895;41.950;24.372;2023-04-03T06:27:21;86144.25;;;4.42;71.50
11678;BME280;5895;41.950;24.372;2023-04-03T06:29:48;86151.09;;;4.48;70.84
11678;BME280;5895;41.950;24.372;2023-04-03T06:32:16;86166.44;;;4.61;72.35
11678;BME280;5895;41.950;24.372;2023-04-03T06:34:43;86161.25;;;4.68;71.51
11678;BME280;5895;41.950;24.372;2023-04-03T06:37:11;86156.06;;;4.74;70.75
11678;BME280;5895;41.950;24.372;2023-04-03T06:39:41;86157.56;;;4.82;70.72
11678;BME280;5895;41.950;24.372;2023-04-03T06:42:10;86161.88;;;4.88;71.55
11678;BME280;5895;41.950;24.372;2023-04-03T06:44:37;86153.13;;;4.96;70.64
11678;BME280;5895;41.950;24.372;2023-04-03T06:47:04;86156.41;;;5.03;70.85
11678;BME280;5895;41.950;24.372;2023-04-03T06:49:31;86162.84;;;5.12;71.20
11678;BME280;5895;41.950;24.372;2023-04-03T06:51:59;86163.16;;;5.22;69.66
11678;BME280;5895;41.950;24.372;2023-04-03T06:54:26;86158.75;;;5.29;69.86
11678;BME280;5895;41.950;24.372;2023-04-03T06:56:53;86164.19;;;5.40;69.41
11678;BME280;5895;41.950;24.372;2023-04-03T06:59:22;86167.03;;;5.50;70.37
11678;BME280;5895;41.950;24.372;2023-04-03T07:01:49;86174.47;;;5.58;69.50
11678;BME280;5895;41.950;24.372;2023-04-03T07:04:16;86176.19;;;5.64;68.72
11678;BME280;5895;41.950;24.372;2023-04-03T07:06:45;86174.91;;;5.73;68.07
11678;BME280;5895;41.950;24.372;2023-04-03T07:09:12;86173.03;;;5.80;67.99
11678;BME280;5895;41.950;24.372;2023-04-03T07:11:39;86163.91;;;5.84;68.00
11678;BME280;5895;41.950;24.372;2023-04-03T07:14:07;86156.13;;;5.91;67.65
11678;BME280;5895;41.950;24.372;2023-04-03T07:16:35;86154.47;;;5.97;68.22
11678;BME280;5895;41.950;24.372;2023-04-03T07:19:03;86149.22;;;6.03;67.80
11678;BME280;5895;41.950;24.372;2023-04-03T07:21:30;86154.75;;;6.07;67.21
11678;BME280;5895;41.950;24.372;2023-04-03T07:23:57;86146.28;;;6.18;67.53
11678;BME280;5895;41.950;24.372;2023-04-03T07:26:24;86144.16;;;6.27;67.74
11678;BME280;5895;41.950;24.372;2023-04-03T07:28:51;86149.69;;;6.30;67.30
11678;BME280;5895;41.950;24.372;2023-04-03T07:31:18;86143.19;;;6.40;67.58
11678;BME280;5895;41.950;24.372;2023-04-03T07:33:47;86140.88;;;6.50;66.94
11678;BME280;5895;41.950;24.372;2023-04-03T07:36:17;86132.63;;;6.59;67.81
11678;BME280;5895;41.950;24.372;2023-04-03T07:38:44;86128.72;;;6.69;66.30
11678;BME280;5895;41.950;24.372;2023-04-03T07:41:14;86132.75;;;6.76;66.76
11678;BME280;5895;41.950;24.372;2023-04-03T07:43:43;86128.94;;;6.79;66.78
11678;BME280;5895;41.950;24.372;2023-04-03T07:46:10;86128.28;;;6.83;67.17
11678;BME280;5895;41.950;24.372;2023-04-03T07:48:38;86121.56;;;6.82;66.63
11678;BME280;5895;41.950;24.372;2023-04-03T07:51:06;86125.41;;;6.92;66.85
11678;BME280;5895;41.950;24.372;2023-04-03T07:53:34;86130.22;;;7.00;66.38
11678;BME280;5895;41.950;24.372;2023-04-03T07:56:01;86131.91;;;7.06;66.74
11678;BME280;5895;41.950;24.372;2023-04-03T07:58:28;86127.88;;;7.10;66.46
11678;BME280;5895;41.950;24.372;2023-04-03T08:00:56;86123.84;;;7.14;66.06
11678;BME280;5895;41.950;24.372;2023-04-03T08:03:23;86129.00;;;7.14;65.54
11678;BME280;5895;41.950;24.372;2023-04-03T08:05:50;86131.69;;;7.19;66.08
11678;BME280;5895;41.950;24.372;2023-04-03T08:08:21;86125.84;;;7.24;65.52
11678;BME280;5895;41.950;24.372;2023-04-03T08:10:50;86128.66;;;7.34;66.28
11678;BME280;5895;41.950;24.372;2023-04-03T08:13:17;86121.81;;;7.39;65.68
11678;BME280;5895;41.950;24.372;2023-04-03T08:15:44;86113.72;;;7.48;65.38
11678;BME280;5895;41.950;24.372;2023-04-03T08:18:12;86125.06;;;7.58;65.30
11678;BME280;5895;41.950;24.372;2023-04-03T08:20:39;86113.59;;;7.66;64.83
11678;BME280;5895;41.950;24.372;2023-04-03T08:23:07;86101.81;;;7.70;64.59
11678;BME280;5895;41.950;24.372;2023-04-03T08:25:39;86107.63;;;7.77;65.46
11678;BME280;5895;41.950;24.372;2023-04-03T08:28:06;86098.31;;;7.76;64.11
11678;BME280;5895;41.950;24.372;2023-04-03T08:30:35;86093.38;;;7.75;64.96
11678;BME280;5895;41.950;24.372;2023-04-03T08:33:03;86098.19;;;7.71;64.61
11678;BME280;5895;41.950;24.372;2023-04-03T08:35:31;86094.84;;;7.71;64.77
11678;BME280;5895;41.950;24.372;2023-04-03T08:37:58;86088.91;;;7.70;64.97
11678;BME280;5895;41.950;24.372;2023-04-03T08:40:26;86093.59;;;7.73;65.19
11678;BME280;5895;41.950;24.372;2023-04-03T08:43:06;86088.41;;;7.73;66.92
11678;BME280;5895;41.950;24.372;2023-04-03T08:45:45;86094.59;;;7.72;66.34
11678;BME280;5895;41.950;24.372;2023-04-03T08:48:15;86096.16;;;7.73;66.23
11678;BME280;5895;41.950;24.372;2023-04-03T08:50:47;86086.63;;;7.74;65.92
11678;BME280;5895;41.950;24.372;2023-04-03T08:53:16;86093.03;;;7.71;65.42
11678;BME280;5895;41.950;24.372;2023-04-03T08:55:46;86096.28;;;7.66;65.48
11678;BME280;5895;41.950;24.372;2023-04-03T08:58:18;86093.16;;;7.64;66.11
11678;BME280;5895;41.950;24.372;2023-04-03T09:00:48;86084.06;;;7.62;65.98
11678;BME280;5895;41.950;24.372;2023-04-03T09:03:17;86083.97;;;7.57;65.47
11678;BME280;5895;41.950;24.372;2023-04-03T09:05:49;86083.84;;;7.52;65.87
11678;BME280;5895;41.950;24.372;2023-04-03T09:08:27;86079.94;;;7.49;66.53
11678;BME280;5895;41.950;24.372;2023-04-03T09:11:03;86074.25;;;7.47;65.74
11678;BME280;5895;41.950;24.372;2023-04-03T09:13:41;86083.66;;;7.41;67.21
11678;BME280;5895;41.950;24.372;2023-04-03T09:16:20;86075.34;;;7.39;67.39
11678;BME280;5895;41.950;24.372;2023-04-03T09:18:57;86072.47;;;7.36;67.15
11678;BME280;5895;41.950;24.372;2023-04-03T09:21:31;86060.34;;;7.36;66.37
11678;BME280;5895;41.950;24.372;2023-04-03T09:24:02;86048.34;;;7.30;67.12
11678;BME280;5895;41.950;24.372;2023-04-03T09:26:35;86044.75;;;7.31;68.33
11678;BME280;5895;41.950;24.372;2023-04-03T09:29:08;86057.88;;;7.18;68.39
11678;BME280;5895;41.950;24.372;2023-04-03T09:31:38;86064.03;;;7.17;69.11
11678;BME280;5895;41.950;24.372;2023-04-03T09:34:09;86072.47;;;7.12;69.06
11678;BME280;5895;41.950;24.372;2023-04-03T09:36:40;86074.72;;;7.09;68.47
11678;BME280;5895;41.950;24.372;2023-04-03T09:39:11;86079.22;;;7.02;68.97
11678;BME280;5895;41.950;24.372;2023-04-03T09:41:39;86063.41;;;6.98;68.44
11678;BME280;5895;41.950;24.372;2023-04-03T09:44:21;86058.25;;;6.98;72.12
11678;BME280;5895;41.950;24.372;2023-04-03T09:46:48;86049.84;;;7.03;69.24
11678;BME280;5895;41.950;24.372;2023-04-03T09:49:17;86059.13;;;7.04;69.32
11678;BME280;5895;41.950;24.372;2023-04-03T09:51:45;86062.84;;;7.08;69.73
11678;BME280;5895;41.950;24.372;2023-04-03T09:54:31;86063.63;;;7.08;73.90
11678;BME280;5895;41.950;24.372;2023-04-03T09:57:01;86057.09;;;7.06;71.09
11678;BME280;5895;41.950;24.372;2023-04-03T09:59:33;86052.97;;;7.05;70.27
11678;BME280;5895;41.950;24.372;2023-04-03T10:02:20;86047.81;;;7.05;70.83
11678;BME280;5895;41.950;24.372;2023-04-03T10:04:48;86049.25;;;7.12;70.00
11678;BME280;5895;41.950;24.372;2023-04-03T10:07:28;86048.13;;;7.20;72.83
11678;BME280;5895;41.950;24.372;2023-04-03T10:09:56;86045.88;;;7.35;69.83
11678;BME280;5895;41.950;24.372;2023-04-03T10:12:24;86038.22;;;7.52;69.51
11678;BME280;5895;41.950;24.372;2023-04-03T10:14:56;86042.13;;;7.55;72.01
11678;BME280;5895;41.950;24.372;2023-04-03T10:17:33;86038.22;;;7.52;71.79
11678;BME280;5895;41.950;24.372;2023-04-03T10:20:09;86044.59;;;7.50;70.61
11678;BME280;5895;41.950;24.372;2023-04-03T10:22:46;86044.38;;;7.39;70.42
11678;BME280;5895;41.950;24.372;2023-04-03T10:25:21;86052.50;;;7.31;70.33
11678;BME280;5895;41.950;24.372;2023-04-03T10:27:55;86053.41;;;7.25;71.13
11678;BME280;5895;41.950;24.372;2023-04-03T10:30:36;86061.56;;;7.22;71.89
11678;BME280;5895;41.950;24.372;2023-04-03T10:33:17;86046.13;;;7.10;72.40
11678;BME280;5895;41.950;24.372;2023-04-03T10:35:53;86053.84;;;6.99;72.56
11678;BME280;5895;41.950;24.372;2023-04-03T10:38:33;86056.78;;;6.91;73.02
11678;BME280;5895;41.950;24.372;2023-04-03T10:41:07;86045.13;;;6.88;73.53
11678;BME280;5895;41.950;24.372;2023-04-03T10:43:43;86047.34;;;6.84;73.77
11678;BME280;5895;41.950;24.372;2023-04-03T10:46:16;86056.22;;;6.77;74.17
11678;BME280;5895;41.950;24.372;2023-04-03T10:49:01;86065.84;;;6.70;74.99
11678;BME280;5895;41.950;24.372;2023-04-03T10:51:37;86064.50;;;6.67;73.71
11678;BME280;5895;41.950;24.372;2023-04-03T10:54:11;86061.25;;;6.60;75.58
11678;BME280;5895;41.950;24.372;2023-04-03T10:56:42;86062.56;;;6.51;74.65
11678;BME280;5895;41.950;24.372;2023-04-03T10:59:21;86064.59;;;6.49;76.80
11678;BME280;5895;41.950;24.372;2023-04-03T11:01:54;86061.75;;;6.39;77.85
11678;BME280;5895;41.950;24.372;2023-04-03T11:04:24;86061.63;;;6.33;75.60
11678;BME280;5895;41.950;24.372;2023-04-03T11:06:58;86046.88;;;6.41;76.80
11678;BME280;5895;41.950;24.372;2023-04-03T11:09:28;86049.78;;;6.44;76.46
11678;BME280;5895;41.950;24.372;2023-04-03T11:12:00;86042.50;;;6.41;77.33
11678;BME280;5895;41.950;24.372;2023-04-03T11:14:32;86048.88;;;6.39;77.17
11678;BME280;5895;41.950;24.372;2023-04-03T11:17:07;86049.22;;;6.42;77.35
11678;BME280;5895;41.950;24.372;2023-04-03T11:19:42;86044.44;;;6.46;77.01
11678;BME280;5895;41.950;24.372;2023-04-03T11:22:16;86043.97;;;6.49;78.67
11678;BME280;5895;41.950;24.372;2023-04-03T11:24:56;86050.81;;;6.43;79.50
11678;BME280;5895;41.950;24.372;2023-04-03T11:27:27;86045.28;;;6.40;78.23
11678;BME280;5895;41.950;24.372;2023-04-03T11:30:01;86040.47;;;6.31;78.80
11678;BME280;5895;41.950;24.372;2023-04-03T11:33:05;86034.66;;;6.24;86.18
11678;BME280;5895;41.950;24.372;2023-04-03T11:35:43;86038.75;;;6.02;84.69
11678;BME280;5895;41.950;24.372;2023-04-03T11:38:17;86027.47;;;5.84;83.33
11678;BME280;5895;41.950;24.372;2023-04-03T11:40:49;86035.94;;;5.73;82.17
11678;BME280;5895;41.950;24.372;2023-04-03T11:43:22;86027.22;;;5.74;82.10
11678;BME280;5895;41.950;24.372;2023-04-03T11:45:54;86032.66;;;5.66;81.94
11678;BME280;5895;41.950;24.372;2023-04-03T11:48:51;86023.03;;;5.62;87.09
11678;BME280;5895;41.950;24.372;2023-04-03T11:51:41;86016.84;;;5.51;88.75
11678;BME280;5895;41.950;24.372;2023-04-03T11:54:43;86013.34;;;5.45;90.06
11678;BME280;5895;41.950;24.372;2023-04-03T11:57:44;86002.91;;;5.40;89.64
11678;BME280;5895;41.950;24.372;2023-04-03T12:00:47;86005.56;;;5.34;87.85
11678;BME280;5895;41.950;24.372;2023-04-03T12:03:33;85994.63;;;5.38;85.23
11678;BME280;5895;41.950;24.372;2023-04-03T12:06:49;85987.63;;;5.45;84.17
11678;BME280;5895;41.950;24.372;2023-04-03T12:09:28;85988.66;;;5.56;81.98
11678;BME280;5895;41.950;24.372;2023-04-03T12:11:57;85987.19;;;5.60;80.50
11678;BME280;5895;41.950;24.372;2023-04-03T12:14:26;85979.06;;;5.63;80.71
11678;BME280;5895;41.950;24.372;2023-04-03T12:16:55;85966.75;;;5.65;81.27
11678;BME280;5895;41.950;24.372;2023-04-03T12:19:34;85963.16;;;5.66;85.07
11678;BME280;5895;41.950;24.372;2023-04-03T12:22:15;85958.03;;;5.66;85.92
11678;BME280;5895;41.950;24.372;2023-04-03T12:24:43;85956.31;;;5.60;84.47
11678;BME280;5895;41.950;24.372;2023-04-03T12:27:25;85952.59;;;5.44;87.29
11678;BME280;5895;41.950;24.372;2023-04-03T12:30:01;85953.94;;;5.47;86.91
11678;BME280;5895;41.950;24.372;2023-04-03T12:35:46;85958.69;;;5.31;84.77
11678;BME280;5895;41.950;24.372;2023-04-03T12:38:44;85947.09;;;5.41;86.70
11678;BME280;5895;41.950;24.372;2023-04-03T12:41:36;85941.75;;;5.42;90.94
11678;BME280;5895;41.950;24.372;2023-04-03T12:44:18;85940.81;;;5.37;86.33
11678;BME280;5895;41.950;24.372;2023-04-03T12:46:51;85934.41;;;5.27;86.76
11678;BME280;5895;41.950;24.372;2023-04-03T12:49:31;85936.00;;;5.28;87.76
11678;BME280;5895;41.950;24.372;2023-04-03T12:52:02;85938.44;;;5.23;86.36
11678;BME280;5895;41.950;24.372;2023-04-03T12:54:36;85938.09;;;5.20;85.78
11678;BME280;5895;41.950;24.372;2023-04-03T12:57:12;85933.72;;;5.20;85.82
11678;BME280;5895;41.950;24.372;2023-04-03T12:59:40;85924.03;;;5.22;84.54
11678;BME280;5895;41.950;24.372;2023-04-03T13:02:20;85919.84;;;5.21;88.06
11678;BME280;5895;41.950;24.372;2023-04-03T13:04:49;85912.59;;;5.18;84.30
11678;BME280;5895;41.950;24.372;2023-04-03T13:07:24;85915.06;;;5.25;87.51
11678;BME280;5895;41.950;24.372;2023-04-03T13:10:10;85909.16;;;5.24;86.19
11678;BME280;5895;41.950;24.372;2023-04-03T13:12:46;85899.97;;;5.17;89.73
11678;BME280;5895;41.950;24.372;2023-04-03T13:15:19;85898.28;;;5.11;87.22
11678;BME280;5895;41.950;24.372;2023-04-03T13:17:46;85890.84;;;5.02;88.19
11678;BME280;5895;41.950;24.372;2023-04-03T13:20:20;85896.00;;;5.02;86.31
11678;BME280;5895;41.950;24.372;2023-04-03T13:22:51;85896.44;;;4.99;87.34
11678;BME280;5895;41.950;24.372;2023-04-03T13:25:24;85889.69;;;4.98;87.54
11678;BME280;5895;41.950;24.372;2023-04-03T13:27:53;85892.06;;;5.00;85.65
11678;BME280;5895;41.950;24.372;2023-04-03T13:30:24;85891.63;;;5.03;85.91
11678;BME280;5895;41.950;24.372;2023-04-03T13:32:53;85895.06;;;4.97;89.90